Kamiah, Idaho
Current Conditions -  °F | °C
As of 12:55 AM on Wednesday 26 Nov 2014 (Local Time) from KGIC Reporting Station
Overcast Overcast  
Wind Chill: 43°   Ceiling: 3400
Heat Index: 49°   Visibility: 10mi
Dew Point: 41°   Wind: 18mph
Humidity: 74%   Direction: 230°SW
Pressure: 30.19"   Gusts: 26mph
Location:  46.23°N, 116.03°W
Report Text: KGIC 260855Z AUTO 23016G23KT 10SM BKN034 OVC040 10/05 A3019 RMK AO1 P0001 60005 T00970052
Loading
Personal Weather Stations






























Interactive Weather Map New forecast layout! Learn more

10-Day Weather Forecast

Advertisements
Track Severe Weather on mobile